createdAt,value
2018-02-05T00:01:28.084Z,93.80
2018-02-05T00:03:55.542Z,93.80
2018-02-05T00:06:22.998Z,93.90
2018-02-05T00:08:50.463Z,93.90
2018-02-05T00:11:17.916Z,94.00
2018-02-05T00:13:45.390Z,94.10
2018-02-05T00:16:12.839Z,94.00
2018-02-05T00:18:40.299Z,94.00
2018-02-05T00:21:07.747Z,93.90
2018-02-05T00:23:35.220Z,93.80
2018-02-05T00:26:02.671Z,93.30
2018-02-05T00:28:30.123Z,93.20
2018-02-05T00:30:57.576Z,92.90
2018-02-05T00:33:25.030Z,93.00
2018-02-05T00:35:52.486Z,93.20
2018-02-05T00:38:19.937Z,93.20
2018-02-05T00:40:47.388Z,93.20
2018-02-05T00:43:14.863Z,93.20
2018-02-05T00:45:42.311Z,92.90
2018-02-05T00:48:09.754Z,92.90
2018-02-05T00:50:37.223Z,93.10
2018-02-05T00:53:04.679Z,93.40
2018-02-05T00:55:32.135Z,92.90
2018-02-05T00:57:59.592Z,92.90
2018-02-05T01:00:27.046Z,92.60
2018-02-05T01:02:54.507Z,92.70
2018-02-05T01:05:21.962Z,92.80
2018-02-05T01:07:49.419Z,93.00
2018-02-05T01:10:16.879Z,93.10
2018-02-05T01:12:44.372Z,93.30
2018-02-05T01:15:11.824Z,93.50
2018-02-05T01:17:39.270Z,93.70
2018-02-05T01:20:07.504Z,92.90
2018-02-05T01:22:34.960Z,93.00
2018-02-05T01:25:02.423Z,92.80
2018-02-05T01:27:29.870Z,92.90
2018-02-05T01:29:57.335Z,92.60
2018-02-05T01:32:24.792Z,92.90
2018-02-05T01:34:52.248Z,93.20
2018-02-05T01:37:19.696Z,93.20
2018-02-05T01:39:47.160Z,93.30
2018-02-05T01:42:14.615Z,93.40
2018-02-05T01:44:42.080Z,93.40
2018-02-05T01:47:09.531Z,93.50
2018-02-05T01:49:36.992Z,93.40
2018-02-05T01:52:04.451Z,93.40
2018-02-05T01:54:31.907Z,93.60
2018-02-05T01:56:59.371Z,93.50
2018-02-05T01:59:26.822Z,93.40
2018-02-05T02:01:54.287Z,93.40
2018-02-05T02:04:22.516Z,93.70
2018-02-05T02:06:49.970Z,93.70
2018-02-05T02:09:17.426Z,93.80
2018-02-05T02:11:44.890Z,93.90
2018-02-05T02:14:12.361Z,94.10
2018-02-05T02:16:39.831Z,94.10
2018-02-05T02:19:07.302Z,94.10
2018-02-05T02:21:34.758Z,94.00
2018-02-05T02:24:02.984Z,94.10
2018-02-05T02:26:30.447Z,94.20
2018-02-05T02:28:57.903Z,94.10
2018-02-05T02:31:25.371Z,94.10
2018-02-05T02:33:52.828Z,94.10
2018-02-05T02:36:20.802Z,94.10
2018-02-05T02:38:48.259Z,94.00
2018-02-05T02:41:15.722Z,94.00
2018-02-05T02:43:43.189Z,94.00
2018-02-05T02:46:10.647Z,94.00
2018-02-05T02:48:38.104Z,94.10
2018-02-05T02:51:05.560Z,94.30
2018-02-05T02:53:33.015Z,94.20
2018-02-05T02:56:00.481Z,94.30
2018-02-05T02:58:27.936Z,94.40
2018-02-05T03:00:56.167Z,94.60
2018-02-05T03:03:23.637Z,94.50
2018-02-05T03:05:51.086Z,94.70
2018-02-05T03:08:18.564Z,94.90
2018-02-05T03:10:46.014Z,95.30
2018-02-05T03:13:13.471Z,95.30
2018-02-05T03:15:40.927Z,95.30
2018-02-05T03:18:08.395Z,95.50
2018-02-05T03:20:35.850Z,95.40
2018-02-05T03:23:03.295Z,95.40
2018-02-05T03:25:30.752Z,95.30
2018-02-05T03:27:58.215Z,95.30
2018-02-05T03:30:25.664Z,95.30
2018-02-05T03:32:53.122Z,95.30
2018-02-05T03:35:20.578Z,95.40
2018-02-05T03:37:48.044Z,95.40
2018-02-05T03:40:15.498Z,95.30
2018-02-05T03:42:42.959Z,95.30
2018-02-05T03:45:10.412Z,95.30
2018-02-05T03:47:37.876Z,95.30
2018-02-05T03:50:06.097Z,95.30
2018-02-05T03:52:33.550Z,95.20
2018-02-05T03:55:01.011Z,95.30
2018-02-05T03:57:28.476Z,95.20
2018-02-05T03:59:55.935Z,95.10
2018-02-05T04:02:23.400Z,95.00
2018-02-05T04:04:50.854Z,94.90
2018-02-05T04:07:18.324Z,94.80
2018-02-05T04:09:45.779Z,94.70
2018-02-05T04:12:13.244Z,94.70
2018-02-05T04:14:40.716Z,94.80
2018-02-05T04:17:09.025Z,94.80
2018-02-05T04:19:36.470Z,94.90
2018-02-05T04:22:03.921Z,94.70
2018-02-05T04:24:31.375Z,94.60
2018-02-05T04:26:58.831Z,94.60
2018-02-05T04:29:26.294Z,94.70
2018-02-05T04:31:53.746Z,94.70
2018-02-05T04:34:21.203Z,94.60
2018-02-05T04:36:48.678Z,94.70
2018-02-05T04:39:16.140Z,94.70
2018-02-05T04:41:43.598Z,94.70
2018-02-05T04:44:11.058Z,94.80
2018-02-05T04:46:38.514Z,94.50
2018-02-05T04:49:05.992Z,94.50
2018-02-05T04:51:33.455Z,94.60
2018-02-05T04:54:00.919Z,94.60
2018-02-05T04:56:28.376Z,94.50
2018-02-05T04:58:55.843Z,94.40
2018-02-05T05:01:23.296Z,94.30
2018-02-05T05:03:50.754Z,94.40
2018-02-05T05:06:18.212Z,94.40
2018-02-05T05:08:45.672Z,94.40
2018-02-05T05:11:13.925Z,94.40
2018-02-05T05:13:41.409Z,94.40
2018-02-05T05:16:10.173Z,94.50
2018-02-05T05:18:37.642Z,94.40
2018-02-05T05:21:05.103Z,94.50
2018-02-05T05:23:33.330Z,94.50
2018-02-05T05:26:00.787Z,94.50
2018-02-05T05:28:28.301Z,94.50
2018-02-05T05:30:56.619Z,94.50
2018-02-05T05:33:24.066Z,94.70
2018-02-05T05:35:52.296Z,94.50
2018-02-05T05:38:19.760Z,94.50
2018-02-05T05:40:47.994Z,94.70
2018-02-05T05:43:15.447Z,94.70
2018-02-05T05:45:42.919Z,94.70
2018-02-05T05:48:10.374Z,94.60
2018-02-05T05:50:37.844Z,94.60
2018-02-05T05:53:05.291Z,94.70
2018-02-05T05:55:32.755Z,94.90
2018-02-05T05:58:00.211Z,94.70
2018-02-05T06:00:27.675Z,94.80
2018-02-05T06:02:55.896Z,94.80
2018-02-05T06:05:23.355Z,94.80
2018-02-05T06:07:50.811Z,94.80
2018-02-05T06:10:18.274Z,94.60
2018-02-05T06:12:45.733Z,94.40
2018-02-05T06:15:13.200Z,94.40
2018-02-05T06:17:40.647Z,94.40
2018-02-05T06:20:08.113Z,94.50
2018-02-05T06:22:35.622Z,94.30
2018-02-05T06:25:03.100Z,94.20
2018-02-05T06:27:30.560Z,94.20
2018-02-05T06:29:58.027Z,94.10
2018-02-05T06:32:25.532Z,94.00
2018-02-05T06:34:52.939Z,94.10
2018-02-05T06:37:20.406Z,94.10
2018-02-05T06:39:47.863Z,94.10
2018-02-05T06:42:15.326Z,94.10
2018-02-05T06:44:42.790Z,94.00
2018-02-05T06:47:10.256Z,93.70
2018-02-05T06:49:37.707Z,93.70
2018-02-05T06:52:16.910Z,94.20
2018-02-05T06:54:56.332Z,93.90
2018-02-05T06:57:23.790Z,93.90
2018-02-05T06:59:51.247Z,93.90
2018-02-05T07:02:19.476Z,94.10
2018-02-05T07:04:47.699Z,94.20
2018-02-05T07:07:15.168Z,93.90
2018-02-05T07:09:42.627Z,94.00
2018-02-05T07:12:10.099Z,93.90
2018-02-05T07:14:37.559Z,93.80
2018-02-05T07:17:05.022Z,93.90
2018-02-05T07:19:32.479Z,93.90
2018-02-05T07:21:59.939Z,93.90
2018-02-05T07:24:27.396Z,93.90
2018-02-05T07:26:54.851Z,93.70
2018-02-05T07:29:22.306Z,93.40
2018-02-05T07:31:49.767Z,93.50
2018-02-05T07:34:17.223Z,93.30
2018-02-05T07:36:45.450Z,93.00
2018-02-05T07:39:12.920Z,92.90
2018-02-05T07:41:40.362Z,93.20
2018-02-05T07:44:07.822Z,93.10
2018-02-05T07:46:35.283Z,93.10
2018-02-05T07:49:02.738Z,93.10
2018-02-05T07:51:30.195Z,93.20
2018-02-05T07:53:57.651Z,93.00
2018-02-05T07:56:25.120Z,93.20
2018-02-05T07:58:52.567Z,93.20
2018-02-05T08:01:20.043Z,92.90
2018-02-05T08:03:47.488Z,92.30
2018-02-05T08:06:14.935Z,91.50
2018-02-05T08:08:42.387Z,90.50
2018-02-05T08:11:09.843Z,88.30
2018-02-05T08:13:37.319Z,86.40
2018-02-05T08:16:04.763Z,85.60
2018-02-05T08:18:32.226Z,84.50
2018-02-05T08:20:59.681Z,81.90
2018-02-05T08:23:27.139Z,80.30
2018-02-05T08:25:54.587Z,76.40
2018-02-05T08:28:22.043Z,75.40
2018-02-05T08:30:49.495Z,73.00
2018-02-05T08:33:16.952Z,72.00
2018-02-05T08:35:44.407Z,71.50
2018-02-05T08:38:11.871Z,71.90
2018-02-05T08:40:39.327Z,71.90
2018-02-05T08:43:06.783Z,72.40
2018-02-05T08:45:34.235Z,73.20
2018-02-05T08:48:01.694Z,73.10
2018-02-05T08:50:29.142Z,76.30
2018-02-05T08:52:56.611Z,77.40
2018-02-05T08:55:24.060Z,76.80
2018-02-05T08:57:51.523Z,76.30
2018-02-05T09:00:18.972Z,77.50
2018-02-05T09:02:46.435Z,78.00
2018-02-05T09:05:13.889Z,77.20
2018-02-05T09:07:41.347Z,77.60
2018-02-05T09:10:08.803Z,76.90
2018-02-05T09:12:36.276Z,78.30
2018-02-05T09:15:03.733Z,77.30
2018-02-05T09:17:31.186Z,76.30
2018-02-05T09:19:58.657Z,75.80
2018-02-05T09:22:26.095Z,76.60
2018-02-05T09:24:53.557Z,76.50
2018-02-05T09:27:21.011Z,76.80
2018-02-05T09:29:48.472Z,78.20
2018-02-05T09:32:15.928Z,76.00
2018-02-05T09:34:43.393Z,75.80
2018-02-05T09:37:10.847Z,74.80
2018-02-05T09:39:38.304Z,74.60
2018-02-05T09:42:05.746Z,73.00
2018-02-05T09:44:33.206Z,73.10
2018-02-05T09:47:00.662Z,71.70
2018-02-05T09:49:28.139Z,71.90
2018-02-05T09:51:56.362Z,70.10
2018-02-05T09:54:23.819Z,70.20
2018-02-05T09:56:52.032Z,66.60
2018-02-05T09:59:19.488Z,66.60
2018-02-05T10:01:46.948Z,64.90
2018-02-05T10:04:14.396Z,64.40
2018-02-05T10:06:41.868Z,63.60
2018-02-05T10:09:09.319Z,63.80
2018-02-05T10:11:36.771Z,62.30
2018-02-05T10:14:04.223Z,60.80
2018-02-05T10:16:31.860Z,61.40
2018-02-05T10:18:59.310Z,60.20
2018-02-05T10:21:26.758Z,59.20
2018-02-05T10:23:54.236Z,58.90
2018-02-05T10:26:21.692Z,56.70
2018-02-05T10:28:49.172Z,57.40
2018-02-05T10:31:16.627Z,56.40
2018-02-05T10:33:44.070Z,55.90
2018-02-05T10:36:11.531Z,56.10
2018-02-05T10:38:38.983Z,55.20
2018-02-05T10:41:06.439Z,54.80
2018-02-05T10:43:33.896Z,54.10
2018-02-05T10:46:01.352Z,53.70
2018-02-05T10:48:28.799Z,53.00
2018-02-05T10:50:56.260Z,54.70
2018-02-05T10:53:23.706Z,53.60
2018-02-05T10:55:51.164Z,52.80
2018-02-05T10:58:18.618Z,51.80
2018-02-05T11:00:46.075Z,52.10
2018-02-05T11:03:13.524Z,50.00
2018-02-05T11:05:40.983Z,52.40
2018-02-05T11:08:08.422Z,51.30
2018-02-05T11:10:35.979Z,53.00
2018-02-05T11:13:03.419Z,53.80
2018-02-05T11:15:30.863Z,54.00
2018-02-05T11:17:58.311Z,53.50
2018-02-05T11:20:26.540Z,50.20
2018-02-05T11:22:53.987Z,50.20
2018-02-05T11:25:22.210Z,51.40
2018-02-05T11:27:50.431Z,52.60
2018-02-05T11:30:17.883Z,52.60
2018-02-05T11:32:45.339Z,52.80
2018-02-05T11:35:12.804Z,55.00
2018-02-05T11:37:40.250Z,54.80
2018-02-05T11:40:07.706Z,55.10
2018-02-05T11:42:35.168Z,56.00
2018-02-05T11:45:02.604Z,55.20
2018-02-05T11:47:30.060Z,54.20
2018-02-05T11:49:57.503Z,52.10
2018-02-05T11:52:25.724Z,49.20
2018-02-05T11:54:53.168Z,49.20
2018-02-05T11:57:20.615Z,50.10
2018-02-05T11:59:48.076Z,47.80
2018-02-05T12:02:15.530Z,48.10
2018-02-05T12:04:42.990Z,45.90
2018-02-05T12:07:10.443Z,45.30
2018-02-05T12:09:37.900Z,45.10
2018-02-05T12:12:05.355Z,47.40
2018-02-05T12:14:32.807Z,47.80
2018-02-05T12:17:00.262Z,48.10
2018-02-05T12:19:27.726Z,48.00
2018-02-05T12:21:55.179Z,49.50
2018-02-05T12:24:22.631Z,52.70
2018-02-05T12:26:50.090Z,53.60
2018-02-05T12:29:17.537Z,53.20
2018-02-05T12:31:44.992Z,52.30
2018-02-05T12:34:12.431Z,52.50
2018-02-05T12:36:39.882Z,52.20
2018-02-05T12:39:08.103Z,50.80
2018-02-05T12:41:35.555Z,50.80
2018-02-05T12:44:03.014Z,50.20
2018-02-05T12:46:30.471Z,48.70
2018-02-05T12:48:57.926Z,49.70
2018-02-05T12:51:25.391Z,47.60
2018-02-05T12:53:52.847Z,49.60
2018-02-05T12:56:20.302Z,47.90
2018-02-05T12:58:47.774Z,47.50
2018-02-05T13:04:25.571Z,48.50
2018-02-05T13:06:53.035Z,48.00
2018-02-05T13:09:20.480Z,45.00
2018-02-05T13:11:47.932Z,46.10
2018-02-05T13:14:15.387Z,47.70
2018-02-05T13:16:42.847Z,47.80
2018-02-05T13:19:10.312Z,46.90
2018-02-05T13:21:37.768Z,45.10
2018-02-05T13:24:05.223Z,48.90
2018-02-05T13:26:32.663Z,46.50
2018-02-05T13:29:00.115Z,47.30
2018-02-05T13:31:27.567Z,49.00
2018-02-05T13:33:55.028Z,48.60
2018-02-05T13:36:22.475Z,46.90
2018-02-05T13:38:49.938Z,47.80
2018-02-05T13:41:17.370Z,48.50
2018-02-05T13:43:44.822Z,49.00
2018-02-05T13:46:13.035Z,47.30
2018-02-05T13:48:40.499Z,47.30
2018-02-05T13:51:07.951Z,49.30
2018-02-05T13:53:35.420Z,47.50
2018-02-05T13:56:02.871Z,47.00
2018-02-05T13:58:30.327Z,47.00
2018-02-05T14:00:57.781Z,48.60
2018-02-05T14:03:25.243Z,48.90
2018-02-05T14:05:52.695Z,49.20
2018-02-05T14:08:20.155Z,48.30
2018-02-05T14:10:47.610Z,48.30
2018-02-05T14:13:15.075Z,48.10
2018-02-05T14:15:42.523Z,50.20
2018-02-05T14:18:09.971Z,51.30
2018-02-05T14:20:37.423Z,49.90
2018-02-05T14:23:04.892Z,51.40
2018-02-05T14:25:32.338Z,51.50
2018-02-05T14:27:59.774Z,53.40
2018-02-05T14:30:27.238Z,52.90
2018-02-05T14:32:54.682Z,53.20
2018-02-05T14:35:22.144Z,52.60
2018-02-05T14:37:49.571Z,52.70
2018-02-05T14:40:17.803Z,52.90
2018-02-05T14:42:45.247Z,52.90
2018-02-05T14:45:12.711Z,51.90
2018-02-05T14:47:40.155Z,53.40
2018-02-05T14:50:07.611Z,53.80
2018-02-05T14:52:35.057Z,53.60
2018-02-05T14:55:02.516Z,53.30
2018-02-05T14:57:29.976Z,53.10
2018-02-05T14:59:57.432Z,53.40
2018-02-05T15:02:24.883Z,54.10
2018-02-05T15:04:52.341Z,54.80
2018-02-05T15:07:19.794Z,55.40
2018-02-05T15:09:47.247Z,55.70
2018-02-05T15:12:14.706Z,55.90
2018-02-05T15:14:42.159Z,55.90
2018-02-05T15:17:09.612Z,55.20
2018-02-05T15:19:37.838Z,55.80
2018-02-05T15:22:05.287Z,55.90
2018-02-05T15:24:32.796Z,55.90
2018-02-05T15:27:00.200Z,55.60
2018-02-05T15:29:27.654Z,55.90
2018-02-05T15:31:55.113Z,56.30
2018-02-05T15:34:22.567Z,56.40
2018-02-05T15:36:50.026Z,56.60
2018-02-05T15:39:17.474Z,56.60
2018-02-05T15:41:44.929Z,56.40
2018-02-05T15:44:12.386Z,57.60
2018-02-05T15:46:39.846Z,57.10
2018-02-05T15:49:07.303Z,56.50
2018-02-05T15:51:34.768Z,57.50
2018-02-05T15:54:02.215Z,58.30
2018-02-05T15:56:29.674Z,57.70
2018-02-05T15:58:57.123Z,58.20
2018-02-05T16:01:24.583Z,57.80
2018-02-05T16:03:52.054Z,58.10
2018-02-05T16:06:19.501Z,58.60
2018-02-05T16:08:46.948Z,58.00
2018-02-05T16:11:14.419Z,58.10
2018-02-05T16:13:41.895Z,59.00
2018-02-05T16:16:09.319Z,58.70
2018-02-05T16:18:36.771Z,58.40
2018-02-05T16:21:04.226Z,59.00
2018-02-05T16:23:31.683Z,59.40
2018-02-05T16:25:59.156Z,59.40
2018-02-05T16:28:26.604Z,60.20
2018-02-05T16:30:54.072Z,59.50
2018-02-05T16:33:22.291Z,60.50
2018-02-05T16:35:49.760Z,60.50
2018-02-05T16:38:17.215Z,61.40
2018-02-05T16:40:44.677Z,60.70
2018-02-05T16:43:12.138Z,60.50
2018-02-05T16:45:39.612Z,60.40
2018-02-05T16:48:07.067Z,60.90
2018-02-05T16:50:34.523Z,61.40
2018-02-05T16:53:01.984Z,61.40
2018-02-05T16:55:29.482Z,61.20
2018-02-05T16:57:56.950Z,61.70
2018-02-05T17:00:24.410Z,61.70
2018-02-05T17:02:51.867Z,61.90
2018-02-05T17:05:19.322Z,61.90
2018-02-05T17:07:46.778Z,61.30
2018-02-05T17:10:14.239Z,61.90
2018-02-05T17:12:41.690Z,61.40
2018-02-05T17:15:09.159Z,62.30
2018-02-05T17:17:36.627Z,63.00
2018-02-05T17:20:04.083Z,64.30
2018-02-05T17:22:31.556Z,65.30
2018-02-05T17:24:59.007Z,64.20
2018-02-05T17:27:26.476Z,65.90
2018-02-05T17:29:53.957Z,66.60
2018-02-05T17:32:21.423Z,66.20
2018-02-05T17:34:48.880Z,65.70
2018-02-05T17:37:16.574Z,66.10
2018-02-05T17:39:44.028Z,65.80
2018-02-05T17:42:11.501Z,66.30
2018-02-05T17:44:38.955Z,66.20
2018-02-05T17:47:06.419Z,66.60
2018-02-05T17:49:33.871Z,67.00
2018-02-05T17:52:01.335Z,66.70
2018-02-05T17:54:28.786Z,67.60
2018-02-05T17:56:56.246Z,66.50
2018-02-05T17:59:23.699Z,66.20
2018-02-05T18:01:51.151Z,66.60
2018-02-05T18:04:18.670Z,65.90
2018-02-05T18:06:46.059Z,66.10
2018-02-05T18:09:13.518Z,67.20
2018-02-05T18:11:40.970Z,67.20
2018-02-05T18:14:08.427Z,67.20
2018-02-05T18:16:35.964Z,67.50
2018-02-05T18:19:03.411Z,67.70
2018-02-05T18:21:30.870Z,67.70
2018-02-05T18:23:58.330Z,68.20
2018-02-05T18:26:25.783Z,68.20
2018-02-05T18:28:53.242Z,68.90
2018-02-05T18:31:20.691Z,68.70
2018-02-05T18:33:48.163Z,68.90
2018-02-05T18:36:15.610Z,69.20
2018-02-05T18:38:43.067Z,70.10
2018-02-05T18:41:10.519Z,69.30
2018-02-05T18:43:37.982Z,69.90
2018-02-05T18:46:05.442Z,69.50
2018-02-05T18:48:32.910Z,70.00
2018-02-05T18:51:00.374Z,70.10
2018-02-05T18:53:27.823Z,71.40
2018-02-05T18:55:55.269Z,71.40
2018-02-05T18:58:22.738Z,71.40
2018-02-05T19:00:51.970Z,72.00
2018-02-05T19:03:20.198Z,72.90
2018-02-05T19:05:47.644Z,72.90
2018-02-05T19:08:15.117Z,73.10
2018-02-05T19:10:43.131Z,74.00
2018-02-05T19:13:11.342Z,74.30
2018-02-05T19:15:38.799Z,74.30
2018-02-05T19:18:06.249Z,74.00
2018-02-05T19:20:33.708Z,73.80
2018-02-05T19:23:01.158Z,73.70
2018-02-05T19:25:29.420Z,74.50
2018-02-05T19:27:56.911Z,74.40
2018-02-05T19:30:24.386Z,74.10
2018-02-05T19:32:51.834Z,74.40
2018-02-05T19:35:19.290Z,74.50
2018-02-05T19:37:46.739Z,74.30
2018-02-05T19:40:14.208Z,74.30
2018-02-05T19:42:41.660Z,74.70
2018-02-05T19:45:09.126Z,74.90
2018-02-05T19:47:36.616Z,75.00
2018-02-05T19:50:04.058Z,75.60
2018-02-05T19:52:32.278Z,75.30
2018-02-05T19:54:59.783Z,75.30
2018-02-05T19:57:27.238Z,75.80
2018-02-05T19:59:54.694Z,75.90
2018-02-05T20:02:22.151Z,76.90
2018-02-05T20:04:49.596Z,76.30
2018-02-05T20:07:17.050Z,77.00
2018-02-05T20:09:44.528Z,76.60
2018-02-05T20:12:12.743Z,76.90
2018-02-05T20:14:40.203Z,76.90
2018-02-05T20:17:07.671Z,77.20
2018-02-05T20:19:35.135Z,77.10
2018-02-05T20:22:02.634Z,76.90
2018-02-05T20:24:30.869Z,76.90
2018-02-05T20:26:59.680Z,77.10
2018-02-05T20:29:27.131Z,76.90
2018-02-05T20:31:54.595Z,76.70
2018-02-05T20:34:22.048Z,78.00
2018-02-05T20:36:49.562Z,76.30
2018-02-05T20:39:17.046Z,76.30
2018-02-05T20:41:44.496Z,76.80
2018-02-05T20:44:11.989Z,76.50
2018-02-05T20:46:40.240Z,76.60
2018-02-05T20:49:07.699Z,76.70
2018-02-05T20:51:36.101Z,75.60
2018-02-05T20:54:04.310Z,76.40
2018-02-05T20:56:32.531Z,76.20
2018-02-05T20:59:00.028Z,76.20
2018-02-05T21:01:27.534Z,75.90
2018-02-05T21:03:55.054Z,75.80
2018-02-05T21:06:23.518Z,75.60
2018-02-05T21:08:50.959Z,75.40
2018-02-05T21:11:18.423Z,75.30
2018-02-05T21:13:45.883Z,75.90
2018-02-05T21:16:14.342Z,75.50
2018-02-05T21:18:41.802Z,75.60
2018-02-05T21:21:10.249Z,75.90
2018-02-05T21:23:37.824Z,75.90
2018-02-05T21:26:06.078Z,75.70
2018-02-05T21:28:33.534Z,75.90
2018-02-05T21:31:00.994Z,76.40
2018-02-05T21:33:28.448Z,76.20
2018-02-05T21:35:56.668Z,76.20
2018-02-05T21:38:24.937Z,75.60
2018-02-05T21:40:53.150Z,76.00
2018-02-05T21:43:20.606Z,76.00
2018-02-05T21:45:48.107Z,76.10
2018-02-05T21:48:15.578Z,75.60
2018-02-05T21:50:43.791Z,75.90
2018-02-05T21:53:11.250Z,75.70
2018-02-05T21:55:38.771Z,75.90
2018-02-05T21:58:07.028Z,76.40
2018-02-05T22:00:34.517Z,76.40
2018-02-05T22:03:01.972Z,76.80
2018-02-05T22:05:29.424Z,75.80
2018-02-05T22:07:56.883Z,76.20
2018-02-05T22:10:24.330Z,76.00
2018-02-05T22:12:52.559Z,76.40
2018-02-05T22:15:22.644Z,76.40
2018-02-05T22:17:50.179Z,76.20
2018-02-05T22:20:18.835Z,75.90
2018-02-05T22:22:46.299Z,75.70
2018-02-05T22:25:13.739Z,76.20
2018-02-05T22:27:41.195Z,75.70
2018-02-05T22:30:08.653Z,75.70
2018-02-05T22:32:36.150Z,75.80
2018-02-05T22:35:04.370Z,75.50
2018-02-05T22:37:31.835Z,75.30
2018-02-05T22:39:59.298Z,75.90
2018-02-05T22:42:26.758Z,75.80
2018-02-05T22:44:54.213Z,76.10
2018-02-05T22:47:21.678Z,76.60
2018-02-05T22:49:49.131Z,76.30
2018-02-05T22:52:16.581Z,76.10
2018-02-05T22:54:44.035Z,75.90
2018-02-05T22:57:11.478Z,75.90
2018-02-05T22:59:38.943Z,75.70
2018-02-05T23:02:06.404Z,75.70
2018-02-05T23:04:33.863Z,75.00
2018-02-05T23:07:01.317Z,75.30
2018-02-05T23:09:28.770Z,75.20
2018-02-05T23:11:56.220Z,75.30
2018-02-05T23:14:23.682Z,75.30
2018-02-05T23:16:51.139Z,75.00
2018-02-05T23:19:18.597Z,75.10
2018-02-05T23:21:46.039Z,75.40
2018-02-05T23:24:13.512Z,75.80
2018-02-05T23:26:40.962Z,75.60
2018-02-05T23:29:08.423Z,75.80
2018-02-05T23:31:35.875Z,75.80
2018-02-05T23:34:03.344Z,75.90
2018-02-05T23:36:30.786Z,75.80
2018-02-05T23:38:59.031Z,76.20
2018-02-05T23:41:26.482Z,76.20
2018-02-05T23:43:53.943Z,76.10
2018-02-05T23:46:21.395Z,75.90
2018-02-05T23:48:49.623Z,75.90
2018-02-05T23:51:17.071Z,75.90
2018-02-05T23:53:44.526Z,76.00
2018-02-05T23:56:11.970Z,75.80
2018-02-05T23:58:39.432Z,75.90
